sensor_id;sensor_type;location;lat;lon;timestamp;P1;durP1;ratioP1;P2;durP2;ratioP2
64957;SDS011;51486;50.232;19.208;2023-05-10T00:00:14;7.60;;;3.73;;
64957;SDS011;51486;50.232;19.208;2023-05-10T00:03:00;9.00;;;3.50;;
64957;SDS011;51486;50.232;19.208;2023-05-10T00:05:46;9.17;;;3.47;;
64957;SDS011;51486;50.232;19.208;2023-05-10T00:08:32;5.00;;;2.67;;
64957;SDS011;51486;50.232;19.208;2023-05-10T00:11:17;8.63;;;2.57;;
64957;SDS011;51486;50.232;19.208;2023-05-10T00:14:03;6.87;;;2.70;;
64957;SDS011;51486;50.232;19.208;2023-05-10T00:16:49;6.13;;;2.73;;
64957;SDS011;51486;50.232;19.208;2023-05-10T00:19:35;7.00;;;3.40;;
64957;SDS011;51486;50.232;19.208;2023-05-10T00:22:20;5.37;;;2.03;;
64957;SDS011;51486;50.232;19.208;2023-05-10T00:25:07;10.73;;;2.57;;
64957;SDS011;51486;50.232;19.208;2023-05-10T00:27:53;4.93;;;2.27;;
64957;SDS011;51486;50.232;19.208;2023-05-10T00:30:40;6.37;;;2.73;;
64957;SDS011;51486;50.232;19.208;2023-05-10T00:33:27;4.33;;;2.60;;
64957;SDS011;51486;50.232;19.208;2023-05-10T00:36:13;7.13;;;2.90;;
64957;SDS011;51486;50.232;19.208;2023-05-10T00:38:59;9.43;;;3.43;;
64957;SDS011;51486;50.232;19.208;2023-05-10T00:41:44;4.73;;;2.67;;
64957;SDS011;51486;50.232;19.208;2023-05-10T00:44:30;7.40;;;3.60;;
64957;SDS011;51486;50.232;19.208;2023-05-10T00:47:16;8.53;;;3.03;;
64957;SDS011;51486;50.232;19.208;2023-05-10T00:50:02;5.57;;;3.30;;
64957;SDS011;51486;50.232;19.208;2023-05-10T00:52:48;4.07;;;2.40;;
64957;SDS011;51486;50.232;19.208;2023-05-10T00:55:34;5.73;;;2.73;;
64957;SDS011;51486;50.232;19.208;2023-05-10T00:58:20;4.87;;;3.10;;
64957;SDS011;51486;50.232;19.208;2023-05-10T01:01:06;9.00;;;2.87;;
64957;SDS011;51486;50.232;19.208;2023-05-10T01:03:52;9.80;;;3.03;;
64957;SDS011;51486;50.232;19.208;2023-05-10T01:06:39;4.70;;;2.33;;
64957;SDS011;51486;50.232;19.208;2023-05-10T01:09:26;5.07;;;2.27;;
64957;SDS011;51486;50.232;19.208;2023-05-10T01:12:12;4.50;;;2.30;;
64957;SDS011;51486;50.232;19.208;2023-05-10T01:14:58;7.67;;;3.33;;
64957;SDS011;51486;50.232;19.208;2023-05-10T01:17:46;4.83;;;2.57;;
64957;SDS011;51486;50.232;19.208;2023-05-10T01:20:35;6.43;;;2.50;;
64957;SDS011;51486;50.232;19.208;2023-05-10T01:30:01;4.23;;;2.10;;
64957;SDS011;51486;50.232;19.208;2023-05-10T01:42:33;3.83;;;2.47;;
64957;SDS011;51486;50.232;19.208;2023-05-10T01:48:25;6.13;;;3.10;;
64957;SDS011;51486;50.232;19.208;2023-05-10T01:51:17;8.53;;;3.57;;
64957;SDS011;51486;50.232;19.208;2023-05-10T01:54:07;6.47;;;3.00;;
64957;SDS011;51486;50.232;19.208;2023-05-10T01:56:55;9.03;;;3.20;;
64957;SDS011;51486;50.232;19.208;2023-05-10T01:59:45;7.27;;;3.40;;
64957;SDS011;51486;50.232;19.208;2023-05-10T02:02:39;9.10;;;3.10;;
64957;SDS011;51486;50.232;19.208;2023-05-10T02:05:27;7.00;;;2.70;;
64957;SDS011;51486;50.232;19.208;2023-05-10T02:08:15;5.57;;;2.80;;
64957;SDS011;51486;50.232;19.208;2023-05-10T02:11:02;7.63;;;3.13;;
64957;SDS011;51486;50.232;19.208;2023-05-10T02:13:50;7.07;;;3.03;;
64957;SDS011;51486;50.232;19.208;2023-05-10T02:16:38;8.57;;;3.00;;
64957;SDS011;51486;50.232;19.208;2023-05-10T02:19:25;9.37;;;3.47;;
64957;SDS011;51486;50.232;19.208;2023-05-10T02:22:13;7.47;;;3.53;;
64957;SDS011;51486;50.232;19.208;2023-05-10T02:25:00;11.50;;;3.40;;
64957;SDS011;51486;50.232;19.208;2023-05-10T02:27:46;6.00;;;3.40;;
64957;SDS011;51486;50.232;19.208;2023-05-10T02:30:33;4.03;;;2.40;;
64957;SDS011;51486;50.232;19.208;2023-05-10T02:33:20;8.23;;;2.73;;
64957;SDS011;51486;50.232;19.208;2023-05-10T02:36:07;11.00;;;3.57;;
64957;SDS011;51486;50.232;19.208;2023-05-10T02:38:54;9.87;;;3.13;;
64957;SDS011;51486;50.232;19.208;2023-05-10T02:41:41;6.93;;;2.77;;
64957;SDS011;51486;50.232;19.208;2023-05-10T02:44:27;6.43;;;3.20;;
64957;SDS011;51486;50.232;19.208;2023-05-10T02:47:16;7.37;;;3.37;;
64957;SDS011;51486;50.232;19.208;2023-05-10T02:50:03;6.07;;;3.40;;
64957;SDS011;51486;50.232;19.208;2023-05-10T02:52:50;6.27;;;3.17;;
64957;SDS011;51486;50.232;19.208;2023-05-10T02:55:40;7.40;;;3.40;;
64957;SDS011;51486;50.232;19.208;2023-05-10T02:58:27;7.90;;;3.47;;
64957;SDS011;51486;50.232;19.208;2023-05-10T03:01:13;6.97;;;3.87;;
64957;SDS011;51486;50.232;19.208;2023-05-10T03:03:59;5.90;;;3.60;;
64957;SDS011;51486;50.232;19.208;2023-05-10T03:06:44;4.10;;;2.47;;
64957;SDS011;51486;50.232;19.208;2023-05-10T03:09:31;7.57;;;3.37;;
64957;SDS011;51486;50.232;19.208;2023-05-10T03:12:27;4.23;;;2.83;;
64957;SDS011;51486;50.232;19.208;2023-05-10T03:18:34;7.13;;;2.83;;
64957;SDS011;51486;50.232;19.208;2023-05-10T03:21:26;9.30;;;3.77;;
64957;SDS011;51486;50.232;19.208;2023-05-10T03:24:15;7.30;;;3.47;;
64957;SDS011;51486;50.232;19.208;2023-05-10T03:27:02;6.37;;;2.93;;
64957;SDS011;51486;50.232;19.208;2023-05-10T03:29:49;9.10;;;3.67;;
64957;SDS011;51486;50.232;19.208;2023-05-10T03:32:36;5.30;;;3.13;;
64957;SDS011;51486;50.232;19.208;2023-05-10T03:35:22;6.77;;;3.40;;
64957;SDS011;51486;50.232;19.208;2023-05-10T03:38:09;5.00;;;2.53;;
64957;SDS011;51486;50.232;19.208;2023-05-10T03:40:54;6.63;;;2.93;;
64957;SDS011;51486;50.232;19.208;2023-05-10T03:43:41;8.20;;;3.60;;
64957;SDS011;51486;50.232;19.208;2023-05-10T03:46:26;8.83;;;3.50;;
64957;SDS011;51486;50.232;19.208;2023-05-10T03:49:12;10.73;;;3.13;;
64957;SDS011;51486;50.232;19.208;2023-05-10T03:51:58;7.07;;;3.50;;
64957;SDS011;51486;50.232;19.208;2023-05-10T03:54:44;9.20;;;3.20;;
64957;SDS011;51486;50.232;19.208;2023-05-10T03:57:30;7.87;;;3.20;;
64957;SDS011;51486;50.232;19.208;2023-05-10T04:00:15;5.43;;;3.03;;
64957;SDS011;51486;50.232;19.208;2023-05-10T04:03:01;5.10;;;2.93;;
64957;SDS011;51486;50.232;19.208;2023-05-10T04:05:47;7.80;;;3.67;;
64957;SDS011;51486;50.232;19.208;2023-05-10T04:08:33;4.57;;;2.73;;
64957;SDS011;51486;50.232;19.208;2023-05-10T04:11:19;15.63;;;3.87;;
64957;SDS011;51486;50.232;19.208;2023-05-10T04:14:07;7.40;;;3.60;;
64957;SDS011;51486;50.232;19.208;2023-05-10T04:16:52;9.40;;;3.97;;
64957;SDS011;51486;50.232;19.208;2023-05-10T04:19:38;9.47;;;3.60;;
64957;SDS011;51486;50.232;19.208;2023-05-10T04:22:24;7.53;;;3.23;;
64957;SDS011;51486;50.232;19.208;2023-05-10T04:25:10;7.67;;;3.27;;
64957;SDS011;51486;50.232;19.208;2023-05-10T04:27:56;5.53;;;2.57;;
64957;SDS011;51486;50.232;19.208;2023-05-10T04:30:41;5.60;;;2.33;;
64957;SDS011;51486;50.232;19.208;2023-05-10T04:33:27;5.30;;;2.67;;
64957;SDS011;51486;50.232;19.208;2023-05-10T04:36:13;10.80;;;3.20;;
64957;SDS011;51486;50.232;19.208;2023-05-10T04:38:58;4.70;;;2.43;;
64957;SDS011;51486;50.232;19.208;2023-05-10T04:41:44;8.20;;;3.23;;
64957;SDS011;51486;50.232;19.208;2023-05-10T04:44:30;12.27;;;3.90;;
64957;SDS011;51486;50.232;19.208;2023-05-10T04:47:16;5.57;;;2.90;;
64957;SDS011;51486;50.232;19.208;2023-05-10T04:50:01;5.43;;;3.23;;
64957;SDS011;51486;50.232;19.208;2023-05-10T04:52:47;5.73;;;2.80;;
64957;SDS011;51486;50.232;19.208;2023-05-10T04:55:33;7.00;;;2.90;;
64957;SDS011;51486;50.232;19.208;2023-05-10T04:58:19;6.13;;;2.90;;
64957;SDS011;51486;50.232;19.208;2023-05-10T05:01:05;4.10;;;2.40;;
64957;SDS011;51486;50.232;19.208;2023-05-10T05:03:52;3.33;;;2.10;;
64957;SDS011;51486;50.232;19.208;2023-05-10T05:06:38;4.17;;;2.53;;
64957;SDS011;51486;50.232;19.208;2023-05-10T05:09:23;3.87;;;2.20;;
64957;SDS011;51486;50.232;19.208;2023-05-10T05:12:09;6.93;;;2.77;;
64957;SDS011;51486;50.232;19.208;2023-05-10T05:14:59;4.20;;;2.50;;
64957;SDS011;51486;50.232;19.208;2023-05-10T05:17:45;4.37;;;2.53;;
64957;SDS011;51486;50.232;19.208;2023-05-10T05:20:34;5.40;;;2.40;;
64957;SDS011;51486;50.232;19.208;2023-05-10T05:23:20;3.60;;;2.37;;
64957;SDS011;51486;50.232;19.208;2023-05-10T05:26:06;4.30;;;2.20;;
64957;SDS011;51486;50.232;19.208;2023-05-10T05:28:51;3.80;;;2.23;;
64957;SDS011;51486;50.232;19.208;2023-05-10T05:31:39;4.73;;;2.47;;
64957;SDS011;51486;50.232;19.208;2023-05-10T05:34:25;5.13;;;2.47;;
64957;SDS011;51486;50.232;19.208;2023-05-10T05:37:20;5.03;;;2.43;;
64957;SDS011;51486;50.232;19.208;2023-05-10T05:40:06;3.27;;;2.03;;
64957;SDS011;51486;50.232;19.208;2023-05-10T05:42:57;4.00;;;2.37;;
64957;SDS011;51486;50.232;19.208;2023-05-10T05:45:43;5.20;;;2.07;;
64957;SDS011;51486;50.232;19.208;2023-05-10T05:48:29;3.93;;;2.07;;
64957;SDS011;51486;50.232;19.208;2023-05-10T05:51:15;4.73;;;2.10;;
64957;SDS011;51486;50.232;19.208;2023-05-10T05:54:01;4.47;;;1.90;;
64957;SDS011;51486;50.232;19.208;2023-05-10T05:56:48;4.73;;;2.47;;
64957;SDS011;51486;50.232;19.208;2023-05-10T05:59:43;2.73;;;2.00;;
64957;SDS011;51486;50.232;19.208;2023-05-10T06:02:29;6.10;;;2.00;;
64957;SDS011;51486;50.232;19.208;2023-05-10T06:05:15;7.37;;;2.37;;
64957;SDS011;51486;50.232;19.208;2023-05-10T06:08:04;4.50;;;2.63;;
64957;SDS011;51486;50.232;19.208;2023-05-10T06:10:50;3.47;;;1.80;;
64957;SDS011;51486;50.232;19.208;2023-05-10T06:13:36;6.27;;;2.13;;
64957;SDS011;51486;50.232;19.208;2023-05-10T06:16:22;5.17;;;1.87;;
64957;SDS011;51486;50.232;19.208;2023-05-10T06:19:10;5.40;;;1.77;;
64957;SDS011;51486;50.232;19.208;2023-05-10T06:21:56;10.00;;;2.13;;
64957;SDS011;51486;50.232;19.208;2023-05-10T06:24:42;2.87;;;1.40;;
64957;SDS011;51486;50.232;19.208;2023-05-10T06:27:28;2.67;;;1.53;;
64957;SDS011;51486;50.232;19.208;2023-05-10T06:30:14;2.43;;;1.33;;
64957;SDS011;51486;50.232;19.208;2023-05-10T06:33:00;2.57;;;1.57;;
64957;SDS011;51486;50.232;19.208;2023-05-10T06:35:46;4.10;;;1.70;;
64957;SDS011;51486;50.232;19.208;2023-05-10T06:38:31;3.10;;;1.40;;
64957;SDS011;51486;50.232;19.208;2023-05-10T06:41:18;2.83;;;1.60;;
64957;SDS011;51486;50.232;19.208;2023-05-10T06:44:04;1.80;;;1.13;;
64957;SDS011;51486;50.232;19.208;2023-05-10T06:46:50;3.03;;;1.40;;
64957;SDS011;51486;50.232;19.208;2023-05-10T06:49:37;2.50;;;1.50;;
64957;SDS011;51486;50.232;19.208;2023-05-10T06:52:23;4.47;;;1.33;;
64957;SDS011;51486;50.232;19.208;2023-05-10T06:55:09;2.17;;;1.33;;
64957;SDS011;51486;50.232;19.208;2023-05-10T06:57:55;2.47;;;1.27;;
64957;SDS011;51486;50.232;19.208;2023-05-10T07:00:41;2.43;;;1.40;;
64957;SDS011;51486;50.232;19.208;2023-05-10T07:03:28;6.63;;;1.80;;
64957;SDS011;51486;50.232;19.208;2023-05-10T07:06:14;4.97;;;2.20;;
64957;SDS011;51486;50.232;19.208;2023-05-10T07:09:00;5.30;;;1.83;;
64957;SDS011;51486;50.232;19.208;2023-05-10T07:11:46;2.27;;;1.60;;
64957;SDS011;51486;50.232;19.208;2023-05-10T07:14:31;2.50;;;1.40;;
64957;SDS011;51486;50.232;19.208;2023-05-10T07:17:17;3.03;;;1.70;;
64957;SDS011;51486;50.232;19.208;2023-05-10T07:20:03;1.60;;;1.13;;
64957;SDS011;51486;50.232;19.208;2023-05-10T07:22:50;1.87;;;1.43;;
64957;SDS011;51486;50.232;19.208;2023-05-10T07:25:36;1.83;;;1.33;;
64957;SDS011;51486;50.232;19.208;2023-05-10T07:28:23;2.07;;;1.23;;
64957;SDS011;51486;50.232;19.208;2023-05-10T07:31:09;1.30;;;1.20;;
64957;SDS011;51486;50.232;19.208;2023-05-10T07:33:55;2.13;;;1.10;;
64957;SDS011;51486;50.232;19.208;2023-05-10T07:36:40;2.37;;;1.20;;
64957;SDS011;51486;50.232;19.208;2023-05-10T07:39:26;9.43;;;1.67;;
64957;SDS011;51486;50.232;19.208;2023-05-10T07:42:15;1.40;;;1.10;;
64957;SDS011;51486;50.232;19.208;2023-05-10T07:45:01;3.57;;;1.37;;
64957;SDS011;51486;50.232;19.208;2023-05-10T07:47:47;2.90;;;1.40;;
64957;SDS011;51486;50.232;19.208;2023-05-10T07:50:33;8.07;;;1.63;;
64957;SDS011;51486;50.232;19.208;2023-05-10T07:53:19;5.63;;;1.73;;
64957;SDS011;51486;50.232;19.208;2023-05-10T07:59:14;2.23;;;1.07;;
64957;SDS011;51486;50.232;19.208;2023-05-10T08:02:00;2.07;;;1.13;;
64957;SDS011;51486;50.232;19.208;2023-05-10T08:04:46;2.73;;;1.23;;
64957;SDS011;51486;50.232;19.208;2023-05-10T08:07:32;1.53;;;1.10;;
64957;SDS011;51486;50.232;19.208;2023-05-10T08:10:18;1.87;;;1.10;;
64957;SDS011;51486;50.232;19.208;2023-05-10T08:13:03;1.20;;;1.10;;
64957;SDS011;51486;50.232;19.208;2023-05-10T08:15:49;1.87;;;1.13;;
64957;SDS011;51486;50.232;19.208;2023-05-10T08:18:38;1.03;;;0.93;;
64957;SDS011;51486;50.232;19.208;2023-05-10T08:21:24;2.53;;;1.43;;
64957;SDS011;51486;50.232;19.208;2023-05-10T08:24:10;2.37;;;1.10;;
64957;SDS011;51486;50.232;19.208;2023-05-10T08:26:55;1.97;;;1.30;;
64957;SDS011;51486;50.232;19.208;2023-05-10T08:29:41;1.50;;;1.13;;
64957;SDS011;51486;50.232;19.208;2023-05-10T08:32:27;1.83;;;1.20;;
64957;SDS011;51486;50.232;19.208;2023-05-10T08:35:13;1.50;;;1.07;;
64957;SDS011;51486;50.232;19.208;2023-05-10T08:37:59;2.30;;;1.03;;
64957;SDS011;51486;50.232;19.208;2023-05-10T08:40:44;1.60;;;0.70;;
64957;SDS011;51486;50.232;19.208;2023-05-10T08:43:31;1.47;;;1.00;;
64957;SDS011;51486;50.232;19.208;2023-05-10T08:46:17;1.07;;;0.93;;
64957;SDS011;51486;50.232;19.208;2023-05-10T08:49:04;4.83;;;1.33;;
64957;SDS011;51486;50.232;19.208;2023-05-10T08:51:54;1.33;;;1.10;;
64957;SDS011;51486;50.232;19.208;2023-05-10T08:54:41;6.87;;;1.77;;
64957;SDS011;51486;50.232;19.208;2023-05-10T08:57:27;2.20;;;1.30;;
64957;SDS011;51486;50.232;19.208;2023-05-10T09:00:13;2.10;;;1.07;;
64957;SDS011;51486;50.232;19.208;2023-05-10T09:03:00;2.90;;;1.60;;
64957;SDS011;51486;50.232;19.208;2023-05-10T09:05:46;3.53;;;1.30;;
64957;SDS011;51486;50.232;19.208;2023-05-10T09:08:33;6.03;;;1.80;;
64957;SDS011;51486;50.232;19.208;2023-05-10T09:11:18;1.33;;;1.13;;
64957;SDS011;51486;50.232;19.208;2023-05-10T09:14:05;3.70;;;1.37;;
64957;SDS011;51486;50.232;19.208;2023-05-10T09:16:51;1.53;;;1.17;;
64957;SDS011;51486;50.232;19.208;2023-05-10T09:19:39;2.10;;;0.90;;
64957;SDS011;51486;50.232;19.208;2023-05-10T09:22:25;2.97;;;1.17;;
64957;SDS011;51486;50.232;19.208;2023-05-10T09:25:11;1.93;;;1.33;;
64957;SDS011;51486;50.232;19.208;2023-05-10T09:27:58;1.93;;;1.13;;
64957;SDS011;51486;50.232;19.208;2023-05-10T09:30:45;2.30;;;0.93;;
64957;SDS011;51486;50.232;19.208;2023-05-10T09:33:48;10.60;;;1.10;;
64957;SDS011;51486;50.232;19.208;2023-05-10T09:36:34;3.03;;;1.60;;
64957;SDS011;51486;50.232;19.208;2023-05-10T09:39:20;1.37;;;1.10;;
64957;SDS011;51486;50.232;19.208;2023-05-10T09:42:07;1.97;;;1.20;;
64957;SDS011;51486;50.232;19.208;2023-05-10T09:44:54;4.53;;;1.00;;
64957;SDS011;51486;50.232;19.208;2023-05-10T09:47:45;1.50;;;1.17;;
64957;SDS011;51486;50.232;19.208;2023-05-10T09:50:31;1.70;;;1.03;;
64957;SDS011;51486;50.232;19.208;2023-05-10T09:53:17;1.23;;;1.07;;
64957;SDS011;51486;50.232;19.208;2023-05-10T09:56:03;4.37;;;1.40;;
64957;SDS011;51486;50.232;19.208;2023-05-10T09:59:01;2.60;;;1.30;;
64957;SDS011;51486;50.232;19.208;2023-05-10T10:01:50;1.60;;;1.27;;
64957;SDS011;51486;50.232;19.208;2023-05-10T10:04:40;2.10;;;1.17;;
64957;SDS011;51486;50.232;19.208;2023-05-10T10:07:26;8.53;;;1.10;;
64957;SDS011;51486;50.232;19.208;2023-05-10T10:10:13;2.20;;;0.93;;
64957;SDS011;51486;50.232;19.208;2023-05-10T10:12:59;2.63;;;1.37;;
64957;SDS011;51486;50.232;19.208;2023-05-10T10:15:45;4.37;;;1.13;;
64957;SDS011;51486;50.232;19.208;2023-05-10T10:18:32;2.53;;;1.20;;
64957;SDS011;51486;50.232;19.208;2023-05-10T10:21:18;2.30;;;1.00;;
64957;SDS011;51486;50.232;19.208;2023-05-10T10:24:04;7.80;;;1.17;;
64957;SDS011;51486;50.232;19.208;2023-05-10T10:26:51;2.90;;;1.30;;
64957;SDS011;51486;50.232;19.208;2023-05-10T10:29:52;1.60;;;1.20;;
64957;SDS011;51486;50.232;19.208;2023-05-10T10:35:34;4.10;;;1.47;;
64957;SDS011;51486;50.232;19.208;2023-05-10T10:38:20;1.33;;;0.80;;
64957;SDS011;51486;50.232;19.208;2023-05-10T10:41:10;2.10;;;1.27;;
64957;SDS011;51486;50.232;19.208;2023-05-10T10:52:45;4.00;;;1.20;;
64957;SDS011;51486;50.232;19.208;2023-05-10T10:55:31;5.47;;;0.77;;
64957;SDS011;51486;50.232;19.208;2023-05-10T10:58:38;1.63;;;0.90;;
64957;SDS011;51486;50.232;19.208;2023-05-10T11:01:23;3.13;;;1.30;;
64957;SDS011;51486;50.232;19.208;2023-05-10T11:04:18;1.73;;;1.07;;
64957;SDS011;51486;50.232;19.208;2023-05-10T11:07:17;2.80;;;1.27;;
64957;SDS011;51486;50.232;19.208;2023-05-10T11:10:06;3.30;;;1.13;;
64957;SDS011;51486;50.232;19.208;2023-05-10T11:12:53;1.27;;;0.90;;
64957;SDS011;51486;50.232;19.208;2023-05-10T11:15:47;5.40;;;1.03;;
64957;SDS011;51486;50.232;19.208;2023-05-10T11:18:34;5.33;;;0.90;;
64957;SDS011;51486;50.232;19.208;2023-05-10T11:21:22;4.10;;;1.53;;
64957;SDS011;51486;50.232;19.208;2023-05-10T11:24:12;1.53;;;0.90;;
64957;SDS011;51486;50.232;19.208;2023-05-10T11:26:59;1.73;;;1.10;;
64957;SDS011;51486;50.232;19.208;2023-05-10T11:29:46;1.00;;;0.90;;
64957;SDS011;51486;50.232;19.208;2023-05-10T11:32:31;1.87;;;1.27;;
64957;SDS011;51486;50.232;19.208;2023-05-10T11:35:17;5.10;;;1.40;;
64957;SDS011;51486;50.232;19.208;2023-05-10T11:38:05;1.37;;;1.03;;
64957;SDS011;51486;50.232;19.208;2023-05-10T11:40:54;0.80;;;0.70;;
64957;SDS011;51486;50.232;19.208;2023-05-10T11:43:39;1.03;;;0.90;;
64957;SDS011;51486;50.232;19.208;2023-05-10T11:46:27;1.60;;;0.90;;
64957;SDS011;51486;50.232;19.208;2023-05-10T11:49:13;1.60;;;1.00;;
64957;SDS011;51486;50.232;19.208;2023-05-10T11:52:05;3.40;;;1.53;;
64957;SDS011;51486;50.232;19.208;2023-05-10T11:54:52;3.73;;;1.00;;
64957;SDS011;51486;50.232;19.208;2023-05-10T11:57:39;3.60;;;1.50;;
64957;SDS011;51486;50.232;19.208;2023-05-10T12:00:28;1.90;;;1.00;;
64957;SDS011;51486;50.232;19.208;2023-05-10T12:03:14;2.23;;;1.10;;
64957;SDS011;51486;50.232;19.208;2023-05-10T12:06:01;3.33;;;1.00;;
64957;SDS011;51486;50.232;19.208;2023-05-10T12:08:48;2.13;;;1.23;;
64957;SDS011;51486;50.232;19.208;2023-05-10T12:11:38;2.40;;;1.20;;
64957;SDS011;51486;50.232;19.208;2023-05-10T12:14:25;1.97;;;1.10;;
64957;SDS011;51486;50.232;19.208;2023-05-10T12:17:11;5.63;;;2.25;;
64957;SDS011;51486;50.232;19.208;2023-05-10T12:19:59;2.50;;;1.50;;
64957;SDS011;51486;50.232;19.208;2023-05-10T12:22:58;2.45;;;1.35;;
64957;SDS011;51486;50.232;19.208;2023-05-10T12:25:47;1.90;;;0.90;;
64957;SDS011;51486;50.232;19.208;2023-05-10T12:28:33;1.33;;;1.05;;
64957;SDS011;51486;50.232;19.208;2023-05-10T12:31:18;0.80;;;0.80;;
64957;SDS011;51486;50.232;19.208;2023-05-10T12:34:04;2.03;;;1.20;;
64957;SDS011;51486;50.232;19.208;2023-05-10T12:36:51;2.40;;;1.20;;
64957;SDS011;51486;50.232;19.208;2023-05-10T12:39:38;3.60;;;1.10;;
64957;SDS011;51486;50.232;19.208;2023-05-10T12:42:28;10.70;;;1.20;;
64957;SDS011;51486;50.232;19.208;2023-05-10T12:45:14;0.80;;;0.80;;
64957;SDS011;51486;50.232;19.208;2023-05-10T12:48:00;2.83;;;1.23;;
64957;SDS011;51486;50.232;19.208;2023-05-10T12:50:46;1.13;;;0.97;;
64957;SDS011;51486;50.232;19.208;2023-05-10T12:53:31;5.10;;;1.53;;
64957;SDS011;51486;50.232;19.208;2023-05-10T12:56:17;18.43;;;1.43;;
64957;SDS011;51486;50.232;19.208;2023-05-10T12:59:03;2.80;;;0.80;;
64957;SDS011;51486;50.232;19.208;2023-05-10T13:01:49;1.05;;;0.93;;
64957;SDS011;51486;50.232;19.208;2023-05-10T13:04:35;7.07;;;1.23;;
64957;SDS011;51486;50.232;19.208;2023-05-10T13:07:24;1.42;;;0.73;;
64957;SDS011;51486;50.232;19.208;2023-05-10T13:10:10;1.17;;;0.87;;
64957;SDS011;51486;50.232;19.208;2023-05-10T13:12:57;11.27;;;1.55;;
64957;SDS011;51486;50.232;19.208;2023-05-10T13:15:43;1.38;;;1.20;;
64957;SDS011;51486;50.232;19.208;2023-05-10T13:18:29;4.80;;;1.30;;
64957;SDS011;51486;50.232;19.208;2023-05-10T13:21:15;1.40;;;0.82;;
64957;SDS011;51486;50.232;19.208;2023-05-10T13:24:01;1.25;;;1.00;;
64957;SDS011;51486;50.232;19.208;2023-05-10T13:26:47;2.08;;;1.17;;
64957;SDS011;51486;50.232;19.208;2023-05-10T13:29:33;2.20;;;1.20;;
64957;SDS011;51486;50.232;19.208;2023-05-10T13:32:19;1.17;;;0.90;;
64957;SDS011;51486;50.232;19.208;2023-05-10T13:35:05;3.40;;;1.10;;
64957;SDS011;51486;50.232;19.208;2023-05-10T13:37:51;1.97;;;1.10;;
64957;SDS011;51486;50.232;19.208;2023-05-10T13:40:38;0.70;;;0.70;;
64957;SDS011;51486;50.232;19.208;2023-05-10T13:43:24;1.87;;;0.90;;
64957;SDS011;51486;50.232;19.208;2023-05-10T13:46:10;2.05;;;0.90;;
64957;SDS011;51486;50.232;19.208;2023-05-10T13:48:56;2.03;;;1.27;;
64957;SDS011;51486;50.232;19.208;2023-05-10T13:51:42;2.78;;;1.40;;
64957;SDS011;51486;50.232;19.208;2023-05-10T13:54:28;1.73;;;1.10;;
64957;SDS011;51486;50.232;19.208;2023-05-10T13:57:15;2.57;;;1.10;;
64957;SDS011;51486;50.232;19.208;2023-05-10T14:00:02;1.33;;;0.67;;
64957;SDS011;51486;50.232;19.208;2023-05-10T14:02:48;5.73;;;1.33;;
64957;SDS011;51486;50.232;19.208;2023-05-10T14:05:34;6.57;;;1.47;;
64957;SDS011;51486;50.232;19.208;2023-05-10T14:08:20;0.75;;;0.75;;
64957;SDS011;51486;50.232;19.208;2023-05-10T14:11:06;4.50;;;1.00;;
64957;SDS011;51486;50.232;19.208;2023-05-10T14:13:51;1.87;;;1.23;;
64957;SDS011;51486;50.232;19.208;2023-05-10T14:16:38;7.10;;;1.43;;
64957;SDS011;51486;50.232;19.208;2023-05-10T14:19:23;1.80;;;1.10;;
64957;SDS011;51486;50.232;19.208;2023-05-10T14:22:09;1.73;;;1.17;;
64957;SDS011;51486;50.232;19.208;2023-05-10T14:24:55;1.97;;;1.20;;
64957;SDS011;51486;50.232;19.208;2023-05-10T14:27:41;1.23;;;0.90;;
64957;SDS011;51486;50.232;19.208;2023-05-10T14:30:27;1.43;;;1.07;;
64957;SDS011;51486;50.232;19.208;2023-05-10T14:33:13;3.73;;;1.00;;
64957;SDS011;51486;50.232;19.208;2023-05-10T14:35:59;1.13;;;0.93;;
64957;SDS011;51486;50.232;19.208;2023-05-10T14:38:45;2.70;;;1.10;;
64957;SDS011;51486;50.232;19.208;2023-05-10T14:41:31;1.40;;;0.90;;
64957;SDS011;51486;50.232;19.208;2023-05-10T14:44:17;2.67;;;1.20;;
64957;SDS011;51486;50.232;19.208;2023-05-10T14:47:03;2.87;;;1.23;;
64957;SDS011;51486;50.232;19.208;2023-05-10T14:49:51;1.13;;;0.90;;
64957;SDS011;51486;50.232;19.208;2023-05-10T14:52:37;2.77;;;1.23;;
64957;SDS011;51486;50.232;19.208;2023-05-10T14:55:22;1.57;;;0.90;;
64957;SDS011;51486;50.232;19.208;2023-05-10T14:58:08;2.33;;;0.97;;
64957;SDS011;51486;50.232;19.208;2023-05-10T15:00:54;1.17;;;1.07;;
64957;SDS011;51486;50.232;19.208;2023-05-10T15:03:40;1.00;;;0.90;;
64957;SDS011;51486;50.232;19.208;2023-05-10T15:06:32;1.90;;;1.20;;
64957;SDS011;51486;50.232;19.208;2023-05-10T15:09:19;5.67;;;0.70;;
64957;SDS011;51486;50.232;19.208;2023-05-10T15:12:05;1.47;;;1.00;;
64957;SDS011;51486;50.232;19.208;2023-05-10T15:14:50;1.23;;;0.87;;
64957;SDS011;51486;50.232;19.208;2023-05-10T15:17:36;2.33;;;1.40;;
64957;SDS011;51486;50.232;19.208;2023-05-10T15:20:22;1.63;;;0.87;;
64957;SDS011;51486;50.232;19.208;2023-05-10T15:23:08;1.33;;;0.90;;
64957;SDS011;51486;50.232;19.208;2023-05-10T15:25:54;1.63;;;1.20;;
64957;SDS011;51486;50.232;19.208;2023-05-10T15:28:40;1.13;;;0.93;;
64957;SDS011;51486;50.232;19.208;2023-05-10T15:31:29;3.67;;;1.40;;
64957;SDS011;51486;50.232;19.208;2023-05-10T15:34:15;1.57;;;1.27;;
64957;SDS011;51486;50.232;19.208;2023-05-10T15:37:01;1.83;;;1.13;;
64957;SDS011;51486;50.232;19.208;2023-05-10T15:39:48;1.50;;;1.00;;
64957;SDS011;51486;50.232;19.208;2023-05-10T15:42:33;1.27;;;1.00;;
64957;SDS011;51486;50.232;19.208;2023-05-10T15:45:19;1.70;;;1.17;;
64957;SDS011;51486;50.232;19.208;2023-05-10T15:48:05;6.80;;;1.83;;
64957;SDS011;51486;50.232;19.208;2023-05-10T15:50:51;2.97;;;0.90;;
64957;SDS011;51486;50.232;19.208;2023-05-10T15:53:36;2.60;;;1.20;;
64957;SDS011;51486;50.232;19.208;2023-05-10T15:56:22;1.70;;;1.10;;
64957;SDS011;51486;50.232;19.208;2023-05-10T15:59:08;1.80;;;1.30;;
64957;SDS011;51486;50.232;19.208;2023-05-10T16:01:55;1.27;;;0.93;;
64957;SDS011;51486;50.232;19.208;2023-05-10T16:04:41;15.40;;;1.60;;
64957;SDS011;51486;50.232;19.208;2023-05-10T16:07:28;2.07;;;1.10;;
64957;SDS011;51486;50.232;19.208;2023-05-10T16:10:14;1.70;;;1.00;;
64957;SDS011;51486;50.232;19.208;2023-05-10T16:13:00;2.33;;;1.40;;
64957;SDS011;51486;50.232;19.208;2023-05-10T16:15:48;1.97;;;1.40;;
64957;SDS011;51486;50.232;19.208;2023-05-10T16:18:34;1.67;;;1.37;;
64957;SDS011;51486;50.232;19.208;2023-05-10T16:21:19;3.40;;;1.33;;
64957;SDS011;51486;50.232;19.208;2023-05-10T16:24:05;1.07;;;0.97;;
64957;SDS011;51486;50.232;19.208;2023-05-10T16:26:51;4.73;;;1.50;;
64957;SDS011;51486;50.232;19.208;2023-05-10T16:29:37;3.10;;;1.60;;
64957;SDS011;51486;50.232;19.208;2023-05-10T16:32:23;8.17;;;1.53;;
64957;SDS011;51486;50.232;19.208;2023-05-10T16:35:09;1.87;;;1.43;;
64957;SDS011;51486;50.232;19.208;2023-05-10T16:37:55;2.00;;;1.60;;
64957;SDS011;51486;50.232;19.208;2023-05-10T16:40:41;1.07;;;0.97;;
64957;SDS011;51486;50.232;19.208;2023-05-10T16:43:27;1.37;;;1.03;;
64957;SDS011;51486;50.232;19.208;2023-05-10T16:46:13;2.90;;;1.20;;
64957;SDS011;51486;50.232;19.208;2023-05-10T16:48:59;1.37;;;1.20;;
64957;SDS011;51486;50.232;19.208;2023-05-10T16:51:44;1.27;;;0.90;;
64957;SDS011;51486;50.232;19.208;2023-05-10T16:54:30;2.53;;;1.03;;
64957;SDS011;51486;50.232;19.208;2023-05-10T16:57:16;4.77;;;1.27;;
64957;SDS011;51486;50.232;19.208;2023-05-10T17:00:02;1.50;;;1.20;;
64957;SDS011;51486;50.232;19.208;2023-05-10T17:02:49;2.47;;;1.47;;
64957;SDS011;51486;50.232;19.208;2023-05-10T17:05:35;6.73;;;1.43;;